This is the latest recevied weather packets stored in our database for station/object OM6ACB-6. If no packets are shown the sender has not sent any weather packets the latest 1 day(s).
| Time | Temp. | Humidity | Pressure | Rain* | Wind** | Luminosity | Snow |
|---|---|---|---|---|---|---|---|
| 1777981492 | 27.22° C | 20% | 1015.8 hPa | 0 mm | 2.68 m/s, 268° | - | - |
| 1777980892 | 28.89° C | 20% | 1016 hPa | 0 mm | 3.58 m/s, 252° | - | - |
| 1777980291 | 27.22° C | 20% | 1015.8 hPa | 0 mm | 4.02 m/s, 233° | - | - |
| 1777979691 | 26.67° C | 20% | 1015.9 hPa | 0 mm | 4.47 m/s, 228° | - | - |
| 1777979091 | 26.67° C | 20% | 1015.9 hPa | 0 mm | 4.02 m/s, 208° | - | - |
| 1777978490 | 26.11° C | 20% | 1015.8 hPa | 0 mm | 4.92 m/s, 229° | - | - |
| 1777977890 | 25.56° C | 20% | 1016 hPa | 0 mm | 3.13 m/s, 212° | - | - |
| 1777977290 | 26.11° C | 20% | 1016 hPa | 0 mm | 4.47 m/s, 267° | - | - |
| 1777976690 | 24.44° C | 20% | 1015.8 hPa | 0 mm | 3.13 m/s, 266° | - | - |
| 1777976089 | 24.44° C | 20% | 1016 hPa | 0 mm | 1.79 m/s, 18° | - | - |
| 1777975489 | 25.56° C | 20% | 1016.1 hPa | 0 mm | 3.13 m/s, 260° | - | - |
| 1777974889 | 23.89° C | 21% | 1015.9 hPa | 0 mm | 4.02 m/s, 251° | - | - |
| 1777974288 | 24.44° C | 20% | 1016.1 hPa | 0 mm | 3.58 m/s, 282° | - | - |
| 1777973688 | 26.11° C | 20% | 1016.5 hPa | 0 mm | 2.68 m/s, 275° | - | - |
| 1777973088 | 25° C | 20% | 1016.4 hPa | 0 mm | 3.13 m/s, 351° | - | - |
| 1777972487 | 25° C | 20% | 1016.4 hPa | 0 mm | 4.47 m/s, 295° | - | - |
| 1777971887 | 24.44° C | 20% | 1016.4 hPa | 0 mm | 3.13 m/s, 234° | - | - |
| 1777971287 | 24.44° C | 20% | 1016.5 hPa | 0 mm | 3.13 m/s, 236° | - | - |
| 1777970687 | 24.44° C | 20% | 1016.6 hPa | 0 mm | 1.79 m/s, 244° | - | - |
| 1777970086 | 24.44° C | 20% | 1016.7 hPa | 0 mm | 0.89 m/s, 331° | - | - |
| 1777969486 | 25° C | 20% | 1016.9 hPa | 0 mm | 2.24 m/s, 256° | - | - |
| 1777968886 | 24.44° C | 20% | 1016.8 hPa | 0 mm | 0.89 m/s, 306° | - | - |
| 1777968288 | 24.44° C | 20% | 1016.9 hPa | 0 mm | 0.89 m/s, 237° | - | - |
| 1777967685 | 22.78° C | 21% | 1016.8 hPa | 0 mm | 0 m/s | - | - |
| 1777967085 | 23.89° C | 21% | 1016.9 hPa | 0 mm | 0 m/s | - | - |
* Rain latest hour (hover to see other rain measurements)
** Current wind speed in m/s (hover to see current wind gust speed)